Time;durP1;ratioP1;P1;durP2;ratioP2;P2;SDS_P1;SDS_P2;PMS_P1;PMS_P2;Temp;Humidity;BMP_temperature;BMP_pressure;BME280_temperature;BME280_humidity;BME280_pressure;Samples;Min_cycle;Max_cycle;Signal;HPM_P1;HPM_P2
2023/07/05 00:00:41;;;;;;;7.15;4.40;;;17.50;99.90;;;;;;4971902;28;20190;-66
2023/07/05 00:03:08;;;;;;;7.38;4.28;;;17.40;99.90;;;;;;4969310;28;20206;-59
2023/07/05 00:05:36;;;;;;;7.55;4.45;;;17.40;99.90;;;;;;4967077;28;20385;-60
2023/07/05 00:08:05;;;;;;;6.43;4.57;;;17.40;99.90;;;;;;4986754;28;20236;-59
2023/07/05 00:10:33;;;;;;;11.88;4.78;;;17.40;99.90;;;;;;4988129;28;20224;-60
2023/07/05 00:13:00;;;;;;;6.38;4.88;;;17.40;99.90;;;;;;4988072;28;20522;-59
2023/07/05 00:15:29;;;;;;;6.25;4.03;;;17.40;99.90;;;;;;4987240;28;20608;-59
2023/07/05 00:17:56;;;;;;;6.90;4.60;;;17.50;99.90;;;;;;4964494;28;20212;-59
2023/07/05 00:20:24;;;;;;;7.75;4.20;;;17.40;99.90;;;;;;4984690;28;20221;-63
2023/07/05 00:22:52;;;;;;;8.95;5.22;;;17.50;99.90;;;;;;4983148;28;20198;-59
2023/07/05 00:25:19;;;;;;;7.15;4.50;;;17.70;99.90;;;;;;4963681;28;20201;-59
2023/07/05 00:27:47;;;;;;;6.93;4.22;;;17.60;99.90;;;;;;4973029;28;20245;-59
2023/07/05 00:30:16;;;;;;;6.70;4.40;;;17.60;99.90;;;;;;4971853;28;21153;-58
2023/07/05 00:32:43;;;;;;;10.25;4.90;;;17.70;99.90;;;;;;4972122;28;20234;-57
2023/07/05 00:35:11;;;;;;;10.75;5.38;;;17.60;99.90;;;;;;4971320;28;20231;-59
2023/07/05 00:37:38;;;;;;;8.73;4.85;;;17.60;99.90;;;;;;4988916;28;20260;-58
2023/07/05 00:40:06;;;;;;;11.77;5.13;;;17.50;99.90;;;;;;4970618;28;20279;-58
2023/07/05 00:42:33;;;;;;;8.07;4.35;;;17.50;99.90;;;;;;4971299;28;20252;-58
2023/07/05 00:45:40;;;;;;;8.30;4.80;;;17.50;99.90;;;;;;4986721;28;20197;-58
2023/07/05 00:48:12;;;;;;;7.35;4.72;;;17.40;99.90;;;;;;4969305;28;20287;-58
2023/07/05 00:50:43;;;;;;;15.80;4.95;;;17.40;99.90;;;;;;4987247;28;20275;-57
2023/07/05 00:53:11;;;;;;;8.77;4.78;;;17.30;99.90;;;;;;4972286;28;20214;-64
2023/07/05 00:55:43;;;;;;;9.55;5.47;;;17.20;99.90;;;;;;4987897;28;20609;-64
2023/07/05 00:58:10;;;;;;;9.45;4.50;;;17.20;99.90;;;;;;4985513;28;20380;-64
2023/07/05 01:00:38;;;;;;;8.77;4.85;;;17.20;99.90;;;;;;4973533;28;20627;-64
2023/07/05 01:03:10;;;;;;;11.30;5.20;;;17.20;99.90;;;;;;4990257;28;20630;-65
2023/07/05 01:05:38;;;;;;;7.35;4.47;;;17.20;99.90;;;;;;4987097;28;20197;-63
2023/07/05 01:08:06;;;;;;;11.57;5.15;;;17.20;99.90;;;;;;4988074;28;20193;-64
2023/07/05 01:10:33;;;;;;;11.07;5.05;;;17.00;99.90;;;;;;4975084;28;20288;-64
2023/07/05 01:13:11;;;;;;;10.43;5.47;;;16.90;99.90;;;;;;4987277;28;20219;-65
2023/07/05 01:15:56;;;;;;;12.40;4.80;;;16.80;99.90;;;;;;4986022;28;20190;-65
2023/07/05 01:18:47;;;;;;;8.43;4.30;;;16.70;99.90;;;;;;4985454;28;20201;-65
2023/07/05 01:21:20;;;;;;;6.95;3.92;;;16.40;99.90;;;;;;4991968;28;20200;-65
2023/07/05 01:24:05;;;;;;;4.80;3.60;;;16.50;99.90;;;;;;4987857;28;20610;-67
2023/07/05 01:26:51;;;;;;;5.60;3.50;;;16.20;99.90;;;;;;4983195;28;20659;-67
2023/07/05 01:29:29;;;;;;;4.97;2.93;;;16.00;99.90;;;;;;4967407;28;20824;-66
2023/07/05 01:32:08;;;;;;;8.83;3.70;;;16.10;99.90;;;;;;4986986;28;20193;-64
2023/07/05 01:34:55;;;;;;;5.23;3.53;;;16.20;99.90;;;;;;4987057;28;20260;-71
2023/07/05 01:37:31;;;;;;;5.53;3.37;;;16.30;1.00;;;;;;4988129;28;20189;-66
2023/07/05 01:39:58;;;;;;;8.10;3.77;;;16.30;1.00;;;;;;4985404;28;20209;-67
2023/07/05 01:42:31;;;;;;;7.80;3.87;;;16.40;1.00;;;;;;4972572;28;20209;-67
2023/07/05 01:45:00;;;;;;;8.00;3.50;;;16.30;99.90;;;;;;4966522;28;20970;-67
2023/07/05 01:47:47;;;;;;;5.60;3.73;;;16.40;99.90;;;;;;4968780;28;20209;-68
2023/07/05 01:50:24;;;;;;;7.90;3.37;;;16.50;99.90;;;;;;4985460;28;20245;-71
2023/07/05 01:53:07;;;;;;;6.70;4.20;;;16.50;99.90;;;;;;4981004;28;20201;-71
2023/07/05 01:56:01;;;;;;;6.00;3.53;;;16.60;99.90;;;;;;4972099;28;20202;-65
2023/07/05 01:58:32;;;;;;;5.03;3.10;;;16.70;99.90;;;;;;4980498;28;20220;-63
2023/07/05 02:05:01;;;;;;;6.13;3.60;;;16.40;99.90;;;;;;4982546;28;20299;-62
2023/07/05 02:07:31;;;;;;;5.63;3.07;;;16.30;99.90;;;;;;4973223;28;20229;-61
2023/07/05 02:09:59;;;;;;;4.43;3.27;;;16.30;99.90;;;;;;4973073;28;20586;-68
2023/07/05 02:12:27;;;;;;;3.93;3.00;;;16.30;99.90;;;;;;4958536;28;20212;-71
2023/07/05 02:14:55;;;;;;;4.93;2.90;;;16.20;99.90;;;;;;4976383;28;20689;-70
2023/07/05 02:17:22;;;;;;;4.53;2.90;;;16.20;99.90;;;;;;4994448;28;20272;-69
2023/07/05 02:19:50;;;;;;;7.53;4.53;;;16.10;99.90;;;;;;4971945;28;20205;-70
2023/07/05 02:22:19;;;;;;;20.97;14.97;;;16.20;99.90;;;;;;4965399;28;20224;-61
2023/07/05 02:24:50;;;;;;;77.53;50.97;;;16.10;99.90;;;;;;4972557;28;20190;-61
2023/07/05 02:27:18;;;;;;;86.80;58.70;;;16.20;99.90;;;;;;4972302;28;20206;-61
2023/07/05 02:29:45;;;;;;;64.27;46.30;;;16.20;99.90;;;;;;4984711;28;21009;-60
2023/07/05 02:32:12;;;;;;;48.67;33.40;;;16.10;99.90;;;;;;4988692;28;20572;-61
2023/07/05 02:34:41;;;;;;;29.40;17.37;;;16.10;99.90;;;;;;4971416;28;20720;-61
2023/07/05 02:37:10;;;;;;;19.80;13.17;;;16.20;99.90;;;;;;4987371;28;20564;-61
2023/07/05 02:39:37;;;;;;;13.10;9.03;;;16.20;99.90;;;;;;4956178;28;20213;-62
2023/07/05 02:42:04;;;;;;;11.27;7.43;;;16.20;99.90;;;;;;4974778;28;20569;-61
2023/07/05 02:44:31;;;;;;;12.00;6.80;;;16.20;99.90;;;;;;4987242;28;20296;-61
2023/07/05 02:47:02;;;;;;;12.03;5.60;;;16.20;99.90;;;;;;4995762;28;20673;-69
2023/07/05 02:49:29;;;;;;;10.53;4.73;;;16.20;99.90;;;;;;4972994;28;20212;-70
2023/07/05 02:51:56;;;;;;;11.23;4.40;;;16.20;99.90;;;;;;4996526;28;20275;-69
2023/07/05 02:54:23;;;;;;;8.33;4.13;;;16.20;99.90;;;;;;4990273;28;20214;-68
2023/07/05 02:56:50;;;;;;;8.73;4.30;;;16.30;99.90;;;;;;4989028;28;20198;-68
2023/07/05 02:59:16;;;;;;;8.00;5.10;;;16.30;99.90;;;;;;4985179;28;20654;-68
2023/07/05 03:01:43;;;;;;;6.23;3.43;;;16.30;99.90;;;;;;4989816;28;20194;-68
2023/07/05 03:04:14;;;;;;;6.07;3.23;;;16.30;99.90;;;;;;4989218;28;20628;-68
2023/07/05 03:06:41;;;;;;;3.27;2.67;;;16.30;99.90;;;;;;4971975;28;20234;-68
2023/07/05 03:09:08;;;;;;;3.73;2.63;;;16.40;99.90;;;;;;4969384;28;20300;-68
2023/07/05 03:11:35;;;;;;;3.63;2.43;;;16.40;99.90;;;;;;4987105;28;20233;-69
2023/07/05 03:14:02;;;;;;;4.23;2.50;;;16.50;99.90;;;;;;4972863;28;20202;-69
2023/07/05 03:16:30;;;;;;;2.83;2.53;;;16.50;99.90;;;;;;4988888;28;20247;-69
2023/07/05 03:18:57;;;;;;;3.50;2.70;;;16.50;99.90;;;;;;4971083;28;20292;-69
2023/07/05 03:21:24;;;;;;;4.10;2.40;;;16.60;99.90;;;;;;4985839;28;20228;-69
2023/07/05 03:23:51;;;;;;;3.50;2.87;;;16.60;99.90;;;;;;4989858;28;20241;-69
2023/07/05 03:26:18;;;;;;;3.83;2.58;;;16.70;99.90;;;;;;4969871;28;20194;-69
2023/07/05 03:28:45;;;;;;;8.33;3.20;;;16.60;99.90;;;;;;4986005;28;20205;-69
2023/07/05 03:31:14;;;;;;;7.97;3.50;;;16.60;99.90;;;;;;4985918;28;20217;-70
2023/07/05 03:33:43;;;;;;;4.57;2.83;;;16.50;99.90;;;;;;4976305;28;20233;-70
2023/07/05 03:36:13;;;;;;;7.17;2.57;;;16.50;99.90;;;;;;4982754;28;20233;-70
2023/07/05 03:38:41;;;;;;;4.87;2.57;;;16.50;99.90;;;;;;4988128;28;20256;-70
2023/07/05 03:41:18;;;;;;;2.97;2.10;;;16.40;1.00;;;;;;4981261;28;20210;-70
2023/07/05 03:43:48;;;;;;;3.97;1.90;;;16.40;1.00;;;;;;4988342;28;20193;-71
2023/07/05 03:46:16;;;;;;;3.23;2.10;;;16.50;1.00;;;;;;4984617;28;20198;-67
2023/07/05 03:48:45;;;;;;;3.33;2.10;;;16.40;1.00;;;;;;4988040;28;20645;-66
2023/07/05 03:51:16;;;;;;;2.03;1.83;;;16.40;1.00;;;;;;4985209;28;20292;-66
2023/07/05 03:53:47;;;;;;;2.97;2.17;;;16.40;1.00;;;;;;4989012;28;20273;-66
2023/07/05 03:56:15;;;;;;;2.50;1.90;;;16.40;1.00;;;;;;4986659;28;20193;-66
2023/07/05 03:58:42;;;;;;;3.27;2.10;;;16.30;1.00;;;;;;4988054;28;20972;-65
2023/07/05 04:01:14;;;;;;;2.50;2.00;;;16.40;1.00;;;;;;4988433;28;20820;-65
2023/07/05 04:03:43;;;;;;;9.43;2.57;;;16.50;1.00;;;;;;4973188;28;20225;-65
2023/07/05 04:06:10;;;;;;;3.60;2.33;;;16.50;1.00;;;;;;4987603;28;20286;-65
2023/07/05 04:08:39;;;;;;;4.10;2.43;;;16.50;1.00;;;;;;4984601;28;20268;-65
2023/07/05 04:11:09;;;;;;;2.90;2.40;;;16.50;1.00;;;;;;4979654;28;20709;-65
2023/07/05 04:13:37;;;;;;;3.83;2.37;;;16.60;1.00;;;;;;4984886;28;20264;-65
2023/07/05 04:16:12;;;;;;;2.10;1.90;;;16.60;1.00;;;;;;4985194;28;20194;-66
2023/07/05 04:18:40;;;;;;;3.23;2.40;;;16.50;1.00;;;;;;4985204;28;20717;-66
2023/07/05 04:21:08;;;;;;;3.43;2.30;;;16.50;1.00;;;;;;4987668;28;20197;-64
2023/07/05 04:23:35;;;;;;;4.70;2.10;;;16.50;1.00;;;;;;4986344;28;20194;-66
2023/07/05 04:26:07;;;;;;;3.43;2.37;;;16.50;1.00;;;;;;4988209;28;20219;-66
2023/07/05 04:28:35;;;;;;;4.47;2.10;;;16.60;1.00;;;;;;4985390;28;20225;-66
2023/07/05 04:31:03;;;;;;;3.03;2.00;;;16.70;99.90;;;;;;4983078;28;20240;-78
2023/07/05 04:33:30;;;;;;;8.15;1.98;;;16.80;99.90;;;;;;4986886;28;20194;-66
2023/07/05 04:36:00;;;;;;;1.80;1.60;;;16.80;99.90;;;;;;4981091;28;20205;-68
2023/07/05 04:38:27;;;;;;;2.40;1.80;;;16.90;99.90;;;;;;4968461;28;20209;-80
2023/07/05 04:40:57;;;;;;;2.70;1.83;;;16.90;99.90;;;;;;4986835;28;20217;-67
2023/07/05 04:43:27;;;;;;;2.10;1.70;;;16.90;99.90;;;;;;4986292;28;20213;-67
2023/07/05 04:45:57;;;;;;;2.00;1.63;;;16.80;99.90;;;;;;4983326;28;20290;-59
2023/07/05 04:48:26;;;;;;;3.17;2.03;;;16.60;99.90;;;;;;4985679;28;20841;-58
2023/07/05 04:50:54;;;;;;;5.80;3.97;;;16.60;99.90;;;;;;4990090;28;20229;-60
2023/07/05 04:53:23;;;;;;;4.47;3.30;;;16.40;99.90;;;;;;4987013;28;20276;-59
2023/07/05 04:55:52;;;;;;;4.90;2.60;;;16.20;99.90;;;;;;4985643;28;20568;-60
2023/07/05 04:58:20;;;;;;;6.67;3.60;;;16.20;99.90;;;;;;4978890;28;20200;-60
2023/07/05 05:00:49;;;;;;;6.13;2.83;;;16.10;99.90;;;;;;4964071;28;20225;-60
2023/07/05 05:03:19;;;;;;;7.40;3.77;;;16.30;99.90;;;;;;4974188;28;20260;-60
2023/07/05 05:05:52;;;;;;;5.47;3.83;;;16.30;99.90;;;;;;4984990;28;20689;-61
2023/07/05 05:08:20;;;;;;;3.27;2.20;;;16.50;99.90;;;;;;4987095;28;20232;-60
2023/07/05 05:10:58;;;;;;;4.37;2.20;;;16.60;99.90;;;;;;4986196;28;20213;-61
2023/07/05 05:13:27;;;;;;;3.97;2.70;;;16.60;99.90;;;;;;4988244;28;20255;-61
2023/07/05 05:15:55;;;;;;;2.90;1.87;;;16.40;99.90;;;;;;4990219;28;20205;-61
2023/07/05 05:18:24;;;;;;;9.25;5.78;;;16.60;99.90;;;;;;4988567;28;20575;-61
2023/07/05 05:20:51;;;;;;;3.03;2.13;;;16.90;99.90;;;;;;4985057;28;20205;-58
2023/07/05 05:23:19;;;;;;;4.03;1.70;;;16.50;99.90;;;;;;4986974;28;20693;-59
2023/07/05 05:25:47;;;;;;;4.23;2.23;;;16.40;99.90;;;;;;4966415;28;20202;-58
2023/07/05 05:28:14;;;;;;;6.50;3.10;;;16.20;99.90;;;;;;4983327;28;20625;-59
2023/07/05 05:30:43;;;;;;;3.43;2.07;;;16.30;99.90;;;;;;4966407;28;20206;-60
2023/07/05 05:33:13;;;;;;;3.90;2.00;;;16.10;99.90;;;;;;4986782;28;20193;-60
2023/07/05 05:35:46;;;;;;;7.23;1.93;;;16.10;99.90;;;;;;4990542;28;20744;-60
2023/07/05 05:38:13;;;;;;;5.23;3.33;;;16.20;99.90;;;;;;4987959;28;20201;-60
2023/07/05 05:40:40;;;;;;;3.25;2.00;;;16.90;99.90;;;;;;4987493;28;20654;-59
2023/07/05 05:43:08;;;;;;;2.45;1.83;;;17.60;99.90;;;;;;4971206;28;20248;-59
2023/07/05 05:45:34;;;;;;;6.85;3.65;;;18.00;99.90;;;;;;4984662;28;20595;-59
2023/07/05 05:48:01;;;;;;;6.30;2.05;;;19.60;99.90;;;;;;4986577;28;20212;-61
2023/07/05 05:50:30;;;;;;;2.50;1.65;;;20.30;99.90;;;;;;4985666;28;20247;-63
2023/07/05 05:52:57;;;;;;;2.90;1.77;;;20.20;99.90;;;;;;4989696;28;20237;-60
2023/07/05 05:55:24;;;;;;;4.72;2.00;;;20.80;99.90;;;;;;4989738;28;20201;-61
2023/07/05 05:57:51;;;;;;;2.08;1.67;;;21.40;99.90;;;;;;4973041;28;20295;-60
2023/07/05 06:00:19;;;;;;;3.50;1.95;;;21.60;99.90;;;;;;4987389;28;20225;-60
2023/07/05 06:02:46;;;;;;;3.17;1.88;;;20.90;99.90;;;;;;4988626;28;20730;-60
2023/07/05 06:05:13;;;;;;;2.20;1.80;;;21.40;99.90;;;;;;4988868;28;20229;-63
2023/07/05 06:07:40;;;;;;;2.58;1.75;;;21.20;99.90;;;;;;4964476;28;20244;-59
2023/07/05 06:10:09;;;;;;;4.32;2.38;;;21.20;99.90;;;;;;4963737;28;20214;-60
2023/07/05 06:12:41;;;;;;;3.00;2.00;;;22.00;99.90;;;;;;4967251;28;20749;-61
2023/07/05 06:15:13;;;;;;;5.10;2.50;;;22.20;99.90;;;;;;4960511;28;20269;-59
2023/07/05 06:17:40;;;;;;;4.15;2.10;;;22.60;99.90;;;;;;4961815;28;20213;-61
2023/07/05 06:20:10;;;;;;;4.80;2.40;;;22.20;99.90;;;;;;4965934;28;20199;-62
2023/07/05 06:22:39;;;;;;;5.70;1.88;;;22.60;99.90;;;;;;4967084;28;20394;-63
2023/07/05 06:25:07;;;;;;;3.33;2.20;;;22.50;99.90;;;;;;4973580;28;20222;-61
2023/07/05 06:27:34;;;;;;;5.40;2.33;;;22.10;99.90;;;;;;4964841;28;20183;-70
2023/07/05 06:30:01;;;;;;;4.65;1.90;;;22.10;99.90;;;;;;4980918;28;20210;-70
2023/07/05 06:32:29;;;;;;;3.42;1.77;;;19.60;99.90;;;;;;4984149;28;20253;-70
2023/07/05 06:34:57;;;;;;;2.50;1.70;;;18.70;99.90;;;;;;4966305;28;20198;-70
2023/07/05 06:37:24;;;;;;;2.75;1.98;;;18.00;99.90;;;;;;4968994;28;20209;-68
2023/07/05 06:39:51;;;;;;;2.55;1.85;;;17.20;99.90;;;;;;4969619;28;20195;-69
2023/07/05 06:42:18;;;;;;;2.55;1.65;;;17.20;99.90;;;;;;4967630;28;20199;-69
2023/07/05 06:44:53;;;;;;;3.08;1.80;;;17.30;99.90;;;;;;4968693;28;20202;-70
2023/07/05 06:47:20;;;;;;;4.10;1.50;;;17.60;99.90;;;;;;4964440;28;20206;-69
2023/07/05 06:49:47;;;;;;;2.38;1.60;;;17.80;99.90;;;;;;4962832;28;20286;-70
2023/07/05 06:52:15;;;;;;;2.65;1.45;;;17.70;99.90;;;;;;4964006;28;20226;-69
2023/07/05 06:54:42;;;;;;;4.43;2.20;;;17.70;99.90;;;;;;4964924;28;20194;-70
2023/07/05 06:57:09;;;;;;;2.95;1.95;;;17.80;99.90;;;;;;4964992;28;20237;-70
2023/07/05 06:59:36;;;;;;;2.15;1.70;;;17.90;99.90;;;;;;4967877;28;20585;-70
2023/07/05 07:02:03;;;;;;;2.60;1.40;;;18.30;99.90;;;;;;4976843;28;20206;-70
2023/07/05 07:04:30;;;;;;;2.47;1.80;;;18.10;99.90;;;;;;4965098;28;20222;-70
2023/07/05 07:06:58;;;;;;;5.40;2.72;;;17.40;99.90;;;;;;4966312;28;20256;-70
2023/07/05 07:09:24;;;;;;;2.83;1.85;;;17.10;99.90;;;;;;4966898;28;20205;-70
2023/07/05 07:11:52;;;;;;;2.47;1.77;;;17.20;99.90;;;;;;4959590;28;21498;-69
2023/07/05 07:14:19;;;;;;;5.70;2.60;;;16.90;99.90;;;;;;4964936;28;20195;-70
2023/07/05 07:16:47;;;;;;;3.50;2.00;;;16.90;99.90;;;;;;4965314;28;20206;-70
2023/07/05 07:19:14;;;;;;;2.60;1.65;;;16.60;99.90;;;;;;4964992;28;20216;-70
2023/07/05 07:21:41;;;;;;;2.73;1.77;;;16.70;99.90;;;;;;4963906;28;20663;-70
2023/07/05 07:24:08;;;;;;;5.85;2.30;;;16.90;99.90;;;;;;4979591;28;20559;-70
2023/07/05 07:26:36;;;;;;;3.83;2.00;;;17.40;99.90;;;;;;4965580;28;20198;-72
2023/07/05 07:29:04;;;;;;;2.10;1.70;;;18.40;99.90;;;;;;4981464;28;20198;-71
2023/07/05 07:31:32;;;;;;;6.80;2.95;;;20.40;99.90;;;;;;4980322;28;20218;-72
2023/07/05 07:34:01;;;;;;;5.30;1.85;;;20.00;99.90;;;;;;4967160;28;20202;-70
2023/07/05 07:36:30;;;;;;;2.00;1.60;;;19.90;99.90;;;;;;4964854;28;20743;-72
2023/07/05 07:38:58;;;;;;;3.47;2.00;;;19.10;99.90;;;;;;4965473;28;20206;-70
2023/07/05 07:41:32;;;;;;;3.40;1.85;;;19.50;99.90;;;;;;4966483;28;20198;-70
2023/07/05 07:44:04;;;;;;;2.22;1.70;;;20.70;99.90;;;;;;4965787;28;20206;-70
2023/07/05 07:46:32;;;;;;;2.60;1.80;;;21.40;99.90;;;;;;4963596;28;20205;-70
2023/07/05 07:49:01;;;;;;;6.82;1.70;;;22.70;99.90;;;;;;4966484;28;20206;-72
2023/07/05 07:51:31;;;;;;;3.42;1.77;;;22.30;99.90;;;;;;4978336;28;20229;-70
2023/07/05 07:54:01;;;;;;;3.10;1.77;;;21.30;99.90;;;;;;4964192;28;20198;-70
2023/07/05 07:56:29;;;;;;;3.15;1.55;;;20.70;99.90;;;;;;4978292;28;20197;-70
2023/07/05 07:58:58;;;;;;;2.95;1.58;;;19.10;99.90;;;;;;4980618;28;20203;-69
2023/07/05 08:01:29;;;;;;;1.67;1.52;;;18.50;99.90;;;;;;4961804;28;20206;-70
2023/07/05 08:03:58;;;;;;;6.03;2.17;;;17.80;99.90;;;;;;4965559;28;20303;-70
2023/07/05 08:06:41;;;;;;;3.03;1.83;;;17.90;99.90;;;;;;4970349;28;20560;-70
2023/07/05 08:09:25;;;;;;;2.42;1.73;;;17.50;99.90;;;;;;4982480;28;20194;-71
2023/07/05 08:11:55;;;;;;;1.77;1.38;;;17.20;99.90;;;;;;4981009;28;20310;-71
2023/07/05 08:14:22;;;;;;;2.87;1.67;;;17.30;99.90;;;;;;4983164;28;20193;-70
2023/07/05 08:16:49;;;;;;;3.00;1.52;;;17.90;99.90;;;;;;4978345;28;20225;-71
2023/07/05 08:19:17;;;;;;;4.68;1.30;;;18.10;99.90;;;;;;4984017;28;20246;-71
2023/07/05 08:21:45;;;;;;;4.07;1.40;;;17.90;99.90;;;;;;4983715;28;20650;-71
2023/07/05 08:24:13;;;;;;;4.07;1.75;;;17.70;99.90;;;;;;4985756;28;20206;-70
2023/07/05 08:26:44;;;;;;;1.45;1.23;;;17.40;99.90;;;;;;4967125;28;20216;-70
2023/07/05 08:29:11;;;;;;;1.42;1.23;;;17.40;99.90;;;;;;4984657;28;20201;-72
2023/07/05 08:31:38;;;;;;;7.78;1.67;;;17.20;99.90;;;;;;4983431;28;20221;-71
2023/07/05 08:34:05;;;;;;;1.97;1.17;;;17.30;99.90;;;;;;4965713;28;20205;-72
2023/07/05 08:36:36;;;;;;;1.85;1.25;;;17.20;99.90;;;;;;4981398;28;20209;-72
2023/07/05 08:39:05;;;;;;;2.72;1.38;;;17.10;99.90;;;;;;4983664;28;20201;-71
2023/07/05 08:41:39;;;;;;;6.18;2.00;;;17.00;99.90;;;;;;4965629;28;20617;-72
2023/07/05 08:44:52;;;;;;;4.72;1.45;;;16.80;99.90;;;;;;4988335;28;20206;-72
2023/07/05 08:47:41;;;;;;;3.53;1.27;;;17.00;99.90;;;;;;4967375;28;20228;-72
2023/07/05 08:50:25;;;;;;;2.63;1.38;;;17.10;99.90;;;;;;4983423;28;20365;-70
2023/07/05 08:53:01;;;;;;;2.28;1.45;;;17.50;99.90;;;;;;4970319;28;20229;-72
2023/07/05 08:55:42;;;;;;;2.75;1.13;;;18.00;99.90;;;;;;4966684;28;20197;-71
2023/07/05 08:58:14;;;;;;;3.65;1.10;;;18.00;99.90;;;;;;4984510;28;20336;-72
2023/07/05 09:00:48;;;;;;;2.42;1.20;;;17.90;99.90;;;;;;4984657;28;20193;-71
2023/07/05 09:03:16;;;;;;;1.30;1.17;;;17.70;99.90;;;;;;4985610;28;20213;-71
2023/07/05 09:06:00;;;;;;;2.03;1.38;;;17.90;99.90;;;;;;4983864;28;20204;-72
2023/07/05 09:08:42;;;;;;;1.17;1.08;;;17.90;99.90;;;;;;4982429;28;20232;-73
2023/07/05 09:11:20;;;;;;;2.83;1.90;;;18.10;99.90;;;;;;4970141;28;20290;-72
2023/07/05 09:13:47;;;;;;;2.95;1.75;;;18.10;99.90;;;;;;4971853;28;20221;-71
2023/07/05 09:16:54;;;;;;;2.58;1.38;;;17.90;99.90;;;;;;4972492;28;20208;-71
2023/07/05 09:19:42;;;;;;;1.95;1.33;;;17.50;99.90;;;;;;4990682;28;20195;-72
2023/07/05 09:22:14;;;;;;;1.73;1.25;;;17.70;99.90;;;;;;4988276;28;20202;-72
2023/07/05 09:24:42;;;;;;;2.10;1.10;;;17.80;99.90;;;;;;4988833;28;20669;-70
2023/07/05 09:27:20;;;;;;;1.83;1.17;;;17.20;99.90;;;;;;4989019;28;20209;-72
2023/07/05 09:30:06;;;;;;;2.05;1.40;;;16.90;99.90;;;;;;4970865;28;20252;-72
2023/07/05 09:32:39;;;;;;;4.07;1.90;;;17.30;99.90;;;;;;4983432;28;20228;-72
2023/07/05 09:35:16;;;;;;;1.50;1.20;;;17.40;99.90;;;;;;4971392;28;20198;-72
2023/07/05 09:38:20;;;;;;;1.48;1.20;;;17.40;99.90;;;;;;4986643;28;20193;-72
2023/07/05 09:41:01;;;;;;;5.05;1.58;;;17.20;99.90;;;;;;4967718;28;20198;-72
2023/07/05 09:43:37;;;;;;;2.88;1.30;;;17.50;99.90;;;;;;4984895;28;20198;-72
2023/07/05 09:46:11;;;;;;;1.55;1.17;;;17.20;99.90;;;;;;4969217;28;20251;-72
2023/07/05 09:48:44;;;;;;;1.38;1.02;;;17.40;99.90;;;;;;4970898;28;20565;-72
2023/07/05 09:51:11;;;;;;;2.10;1.15;;;17.30;99.90;;;;;;4986655;28;20700;-71
2023/07/05 09:53:45;;;;;;;1.38;1.13;;;17.30;99.90;;;;;;4987859;28;20318;-70
2023/07/05 09:56:26;;;;;;;2.40;1.45;;;17.60;99.90;;;;;;4969419;28;20212;-71
2023/07/05 09:59:12;;;;;;;4.78;1.40;;;17.80;99.90;;;;;;4969273;28;20662;-70
2023/07/05 10:01:47;;;;;;;1.50;1.00;;;18.40;99.90;;;;;;4983043;28;20554;-70
2023/07/05 10:04:16;;;;;;;1.45;1.10;;;18.50;99.90;;;;;;4986686;28;20563;-72
2023/07/05 10:06:46;;;;;;;1.35;1.15;;;19.40;99.90;;;;;;4984883;28;20217;-70
2023/07/05 10:09:19;;;;;;;2.15;1.15;;;19.70;99.90;;;;;;4985899;28;20244;-71
2023/07/05 10:11:49;;;;;;;2.80;1.30;;;20.30;99.90;;;;;;4967131;28;20190;-72
2023/07/05 10:14:19;;;;;;;2.17;1.05;;;21.70;99.90;;;;;;4968527;28;20193;-72
2023/07/05 10:16:57;;;;;;;3.97;1.10;;;21.80;99.90;;;;;;4985447;28;20270;-72
2023/07/05 10:19:38;;;;;;;1.25;1.00;;;23.00;99.90;;;;;;4986182;28;20393;-69
2023/07/05 10:22:16;;;;;;;1.80;1.10;;;21.80;99.90;;;;;;4970435;28;20198;-71
2023/07/05 10:24:48;;;;;;;1.63;1.10;;;21.60;99.90;;;;;;4986151;28;20255;-71
2023/07/05 10:27:34;;;;;;;6.22;1.40;;;21.20;99.90;;;;;;4968678;28;20193;-74
2023/07/05 10:30:03;;;;;;;2.45;1.35;;;20.70;99.90;;;;;;4988254;28;20286;-72
2023/07/05 10:32:31;;;;;;;3.92;1.40;;;19.70;99.90;;;;;;4987526;28;20581;-71
2023/07/05 10:34:59;;;;;;;2.53;1.25;;;19.10;99.90;;;;;;4986682;28;20194;-70
2023/07/05 10:37:31;;;;;;;4.13;1.10;;;18.90;99.90;;;;;;4984803;28;20560;-70
2023/07/05 10:40:00;;;;;;;4.18;1.23;;;18.60;99.90;;;;;;4987389;28;20229;-72
2023/07/05 10:42:28;;;;;;;2.50;1.15;;;18.40;99.90;;;;;;4987012;28;20661;-70
2023/07/05 10:44:56;;;;;;;3.83;1.55;;;18.70;99.90;;;;;;4984564;28;20275;-72
2023/07/05 10:47:24;;;;;;;1.45;1.02;;;18.90;99.90;;;;;;4969050;28;20210;-72
2023/07/05 10:49:52;;;;;;;7.05;1.20;;;19.30;99.90;;;;;;4985007;28;20771;-72
2023/07/05 10:52:20;;;;;;;4.18;1.30;;;19.70;99.90;;;;;;4968593;28;20237;-71
2023/07/05 10:55:14;;;;;;;3.47;1.23;;;19.50;99.90;;;;;;4983464;28;20705;-72
2023/07/05 10:57:45;;;;;;;3.15;1.20;;;19.60;99.90;;;;;;4984818;28;20212;-70
2023/07/05 11:00:38;;;;;;;4.85;1.27;;;20.00;99.90;;;;;;4983170;28;20213;-72
2023/07/05 11:03:21;;;;;;;2.40;1.10;;;19.80;99.90;;;;;;4984510;28;20197;-71
2023/07/05 11:05:51;;;;;;;4.63;1.77;;;20.00;99.90;;;;;;4968446;28;20201;-71
2023/07/05 11:08:31;;;;;;;2.75;1.30;;;20.00;99.90;;;;;;4986482;28;20248;-71
2023/07/05 11:11:03;;;;;;;11.63;1.70;;;19.80;99.90;;;;;;4985529;28;20723;-71
2023/07/05 11:13:30;;;;;;;4.88;1.13;;;20.00;99.90;;;;;;4986851;28;20671;-71
2023/07/05 11:15:58;;;;;;;3.05;1.30;;;19.70;99.90;;;;;;4964979;28;20202;-70
2023/07/05 11:18:28;;;;;;;4.47;1.40;;;19.70;99.90;;;;;;4969569;28;20193;-72
2023/07/05 11:20:59;;;;;;;2.80;1.35;;;19.70;99.90;;;;;;4985172;28;20199;-71
2023/07/05 11:23:42;;;;;;;1.42;1.20;;;19.90;99.90;;;;;;4986601;28;20201;-70
2023/07/05 11:26:42;;;;;;;5.57;1.83;;;19.70;99.90;;;;;;4966716;28;20621;-72
2023/07/05 11:29:27;;;;;;;4.28;1.52;;;20.00;99.90;;;;;;4982841;28;20202;-72
2023/07/05 11:31:59;;;;;;;5.65;1.33;;;20.70;99.90;;;;;;4981114;28;20284;-72
2023/07/05 11:34:26;;;;;;;4.18;1.30;;;21.10;99.90;;;;;;4978667;28;20275;-71
2023/07/05 11:36:54;;;;;;;9.52;1.55;;;21.60;99.90;;;;;;4964446;28;20316;-72
2023/07/05 11:39:39;;;;;;;1.20;1.00;;;22.20;99.40;;;;;;4966663;28;20307;-72
2023/07/05 11:42:15;;;;;;;6.80;1.30;;;22.00;99.20;;;;;;4968895;28;20684;-72
2023/07/05 11:44:49;;;;;;;8.95;1.48;;;21.40;99.90;;;;;;4966686;28;20197;-71
2023/07/05 11:47:22;;;;;;;3.40;1.27;;;21.90;99.80;;;;;;4982563;28;20256;-71
2023/07/05 11:49:55;;;;;;;1.77;1.08;;;22.20;98.80;;;;;;4981997;28;20190;-71
2023/07/05 11:52:25;;;;;;;8.55;1.80;;;22.70;97.70;;;;;;4981436;28;20688;-72
2023/07/05 11:55:06;;;;;;;7.63;0.98;;;22.60;97.40;;;;;;4981812;28;20194;-71
2023/07/05 11:57:55;;;;;;;6.85;1.00;;;22.70;96.90;;;;;;4967566;28;20209;-72
2023/07/05 12:00:34;;;;;;;1.67;0.95;;;22.00;96.40;;;;;;4981840;28;20284;-65
2023/07/05 12:03:07;;;;;;;3.55;1.00;;;22.60;97.10;;;;;;4982570;28;22635;-61
2023/07/05 12:05:36;;;;;;;4.75;1.77;;;22.50;95.70;;;;;;4981162;28;20193;-67
2023/07/05 12:08:16;;;;;;;6.28;1.02;;;21.60;95.50;;;;;;4951387;28;20205;-63
2023/07/05 12:11:00;;;;;;;1.38;1.00;;;22.50;96.00;;;;;;4985121;28;20698;-63
2023/07/05 12:13:32;;;;;;;5.22;1.40;;;22.10;95.80;;;;;;4982817;28;20229;-63
2023/07/05 12:16:14;;;;;;;2.83;1.10;;;21.60;95.10;;;;;;4981045;28;20256;-63
2023/07/05 12:18:41;;;;;;;5.18;1.60;;;21.40;94.80;;;;;;4967977;28;20202;-64
2023/07/05 12:21:12;;;;;;;3.63;1.63;;;21.80;94.30;;;;;;4982114;28;20437;-61
2023/07/05 12:23:39;;;;;;;2.05;1.25;;;21.80;94.60;;;;;;4967835;28;20308;-62
2023/07/05 12:26:27;;;;;;;2.17;1.23;;;21.80;94.90;;;;;;4983220;28;20210;-61
2023/07/05 12:28:54;;;;;;;2.58;1.00;;;21.80;94.50;;;;;;4985279;28;20209;-63
2023/07/05 12:31:24;;;;;;;2.50;1.58;;;22.00;94.90;;;;;;4979268;28;20471;-64
2023/07/05 12:33:57;;;;;;;6.63;2.00;;;22.30;95.10;;;;;;4979202;28;20213;-63
2023/07/05 12:36:24;;;;;;;11.63;2.60;;;22.20;94.10;;;;;;4966724;28;20209;-65
2023/07/05 12:39:08;;;;;;;3.53;1.27;;;22.10;94.10;;;;;;4966427;28;20206;-63
2023/07/05 12:41:35;;;;;;;2.20;1.33;;;22.50;99.90;;;;;;4966457;28;21451;-63
2023/07/05 12:44:05;;;;;;;4.10;1.35;;;22.50;93.20;;;;;;4983545;28;20617;-63
2023/07/05 12:46:34;;;;;;;4.97;1.88;;;22.40;92.10;;;;;;4965840;28;20210;-61
2023/07/05 12:49:12;;;;;;;2.25;1.80;;;22.60;92.40;;;;;;4985257;28;20696;-63
2023/07/05 12:51:54;;;;;;;2.63;1.27;;;22.50;91.50;;;;;;4965400;28;20213;-62
2023/07/05 12:54:23;;;;;;;2.15;1.10;;;21.90;91.20;;;;;;4983950;28;20280;-63
2023/07/05 12:56:53;;;;;;;1.48;1.00;;;21.70;91.00;;;;;;4985688;28;20277;-62
2023/07/05 12:59:34;;;;;;;7.10;1.48;;;21.40;91.50;;;;;;4986149;28;20194;-61
2023/07/05 13:02:29;;;;;;;1.25;1.02;;;21.50;91.90;;;;;;4984901;28;20193;-63
2023/07/05 13:04:59;;;;;;;1.98;1.00;;;21.50;91.40;;;;;;4985060;28;20221;-66
2023/07/05 13:07:27;;;;;;;1.73;1.10;;;21.90;91.20;;;;;;4983965;28;20257;-63
2023/07/05 13:10:06;;;;;;;2.15;1.10;;;21.90;90.60;;;;;;4986701;28;20189;-64
2023/07/05 13:12:58;;;;;;;1.83;1.08;;;22.20;90.50;;;;;;4986339;28;20288;-61